sensor_id;sensor_type;location;lat;lon;timestamp;temperature;humidity
80230;DHT22;69540;42.136;24.742;2024-03-23T00:54:20;11.40;44.10
80230;DHT22;69540;42.136;24.742;2024-03-23T00:56:45;11.30;44.10
80230;DHT22;69540;42.136;24.742;2024-03-23T00:59:11;11.30;44.00
80230;DHT22;69540;42.136;24.742;2024-03-23T01:01:37;11.20;44.10
80230;DHT22;69540;42.136;24.742;2024-03-23T01:04:03;11.20;44.40
80230;DHT22;69540;42.136;24.742;2024-03-23T01:06:28;11.20;44.50
80230;DHT22;69540;42.136;24.742;2024-03-23T01:08:54;11.20;44.30
80230;DHT22;69540;42.136;24.742;2024-03-23T01:11:20;11.10;44.70
80230;DHT22;69540;42.136;24.742;2024-03-23T01:13:45;11.00;45.00
80230;DHT22;69540;42.136;24.742;2024-03-23T01:16:11;11.00;45.10
80230;DHT22;69540;42.136;24.742;2024-03-23T01:18:37;11.00;45.10
80230;DHT22;69540;42.136;24.742;2024-03-23T01:21:03;11.00;45.10
80230;DHT22;69540;42.136;24.742;2024-03-23T01:23:29;11.00;45.00
80230;DHT22;69540;42.136;24.742;2024-03-23T01:25:55;11.00;45.00
80230;DHT22;69540;42.136;24.742;2024-03-23T01:28:21;11.00;45.10
80230;DHT22;69540;42.136;24.742;2024-03-23T01:30:47;11.00;45.10
80230;DHT22;69540;42.136;24.742;2024-03-23T01:33:13;11.00;45.20
80230;DHT22;69540;42.136;24.742;2024-03-23T01:35:39;11.00;45.30
80230;DHT22;69540;42.136;24.742;2024-03-23T01:38:05;11.10;45.30
80230;DHT22;69540;42.136;24.742;2024-03-23T01:40:31;11.10;45.30
80230;DHT22;69540;42.136;24.742;2024-03-23T01:42:58;11.00;45.30
80230;DHT22;69540;42.136;24.742;2024-03-23T01:45:24;11.00;45.50
80230;DHT22;69540;42.136;24.742;2024-03-23T01:47:53;11.00;45.50
80230;DHT22;69540;42.136;24.742;2024-03-23T01:50:19;10.90;45.40
80230;DHT22;69540;42.136;24.742;2024-03-23T01:52:46;10.90;45.40
80230;DHT22;69540;42.136;24.742;2024-03-23T01:55:12;10.80;45.80
80230;DHT22;69540;42.136;24.742;2024-03-23T01:57:37;10.80;46.20
80230;DHT22;69540;42.136;24.742;2024-03-23T02:00:04;10.70;46.40
80230;DHT22;69540;42.136;24.742;2024-03-23T02:02:30;10.70;46.70
80230;DHT22;69540;42.136;24.742;2024-03-23T02:04:56;10.70;46.80
80230;DHT22;69540;42.136;24.742;2024-03-23T02:07:21;10.60;46.70
80230;DHT22;69540;42.136;24.742;2024-03-23T02:09:49;10.60;46.70
80230;DHT22;69540;42.136;24.742;2024-03-23T02:12:15;10.60;46.70
80230;DHT22;69540;42.136;24.742;2024-03-23T02:14:41;10.50;46.70
80230;DHT22;69540;42.136;24.742;2024-03-23T02:17:07;10.50;46.80
80230;DHT22;69540;42.136;24.742;2024-03-23T02:19:32;10.50;46.80
80230;DHT22;69540;42.136;24.742;2024-03-23T02:21:58;10.50;46.90
80230;DHT22;69540;42.136;24.742;2024-03-23T02:24:24;10.50;46.80
80230;DHT22;69540;42.136;24.742;2024-03-23T02:26:49;10.50;46.80
80230;DHT22;69540;42.136;24.742;2024-03-23T02:29:15;10.50;46.70
80230;DHT22;69540;42.136;24.742;2024-03-23T02:31:41;10.50;46.70
80230;DHT22;69540;42.136;24.742;2024-03-23T02:34:06;10.50;46.70
80230;DHT22;69540;42.136;24.742;2024-03-23T02:36:32;10.60;46.60
80230;DHT22;69540;42.136;24.742;2024-03-23T02:38:58;10.60;46.50
80230;DHT22;69540;42.136;24.742;2024-03-23T02:41:23;10.50;46.40
80230;DHT22;69540;42.136;24.742;2024-03-23T02:43:52;10.50;46.40
80230;DHT22;69540;42.136;24.742;2024-03-23T02:46:18;10.50;46.50
80230;DHT22;69540;42.136;24.742;2024-03-23T02:48:44;10.50;46.40
80230;DHT22;69540;42.136;24.742;2024-03-23T02:51:10;10.40;46.30
80230;DHT22;69540;42.136;24.742;2024-03-23T02:53:35;10.40;46.30
80230;DHT22;69540;42.136;24.742;2024-03-23T02:56:01;10.40;46.30
80230;DHT22;69540;42.136;24.742;2024-03-23T02:58:27;10.40;46.30
80230;DHT22;69540;42.136;24.742;2024-03-23T03:00:53;10.40;46.20
80230;DHT22;69540;42.136;24.742;2024-03-23T03:03:18;10.40;46.20
80230;DHT22;69540;42.136;24.742;2024-03-23T03:05:44;10.40;46.20
80230;DHT22;69540;42.136;24.742;2024-03-23T03:08:10;10.40;46.10
80230;DHT22;69540;42.136;24.742;2024-03-23T03:10:35;10.30;45.80
80230;DHT22;69540;42.136;24.742;2024-03-23T03:13:02;10.30;45.60
80230;DHT22;69540;42.136;24.742;2024-03-23T03:15:28;10.30;45.40
80230;DHT22;69540;42.136;24.742;2024-03-23T03:17:53;10.30;45.40
80230;DHT22;69540;42.136;24.742;2024-03-23T03:20:19;10.30;45.40
80230;DHT22;69540;42.136;24.742;2024-03-23T03:22:47;10.20;45.30
80230;DHT22;69540;42.136;24.742;2024-03-23T03:25:14;10.20;45.40
80230;DHT22;69540;42.136;24.742;2024-03-23T03:27:39;10.20;45.40
80230;DHT22;69540;42.136;24.742;2024-03-23T03:30:05;10.20;45.40
80230;DHT22;69540;42.136;24.742;2024-03-23T03:32:33;10.10;45.50
80230;DHT22;69540;42.136;24.742;2024-03-23T03:34:59;10.10;45.70
80230;DHT22;69540;42.136;24.742;2024-03-23T03:37:25;10.10;45.80
80230;DHT22;69540;42.136;24.742;2024-03-23T03:39:51;10.10;45.80
80230;DHT22;69540;42.136;24.742;2024-03-23T03:42:16;10.10;45.80
80230;DHT22;69540;42.136;24.742;2024-03-23T03:44:42;10.00;45.90
80230;DHT22;69540;42.136;24.742;2024-03-23T03:47:08;10.00;46.20
80230;DHT22;69540;42.136;24.742;2024-03-23T03:49:33;9.90;46.40
80230;DHT22;69540;42.136;24.742;2024-03-23T03:51:59;9.80;46.40
80230;DHT22;69540;42.136;24.742;2024-03-23T03:54:26;9.90;46.20
80230;DHT22;69540;42.136;24.742;2024-03-23T03:56:52;9.80;46.20
80230;DHT22;69540;42.136;24.742;2024-03-23T03:59:18;9.80;46.50
80230;DHT22;69540;42.136;24.742;2024-03-23T04:01:44;9.80;46.80
80230;DHT22;69540;42.136;24.742;2024-03-23T04:04:10;9.80;46.90
80230;DHT22;69540;42.136;24.742;2024-03-23T04:06:37;9.70;46.80
80230;DHT22;69540;42.136;24.742;2024-03-23T04:09:02;9.70;46.70
80230;DHT22;69540;42.136;24.742;2024-03-23T04:11:28;9.70;46.60
80230;DHT22;69540;42.136;24.742;2024-03-23T04:13:54;9.70;46.60
80230;DHT22;69540;42.136;24.742;2024-03-23T04:16:30;9.60;46.60
80230;DHT22;69540;42.136;24.742;2024-03-23T04:18:55;9.60;46.70
80230;DHT22;69540;42.136;24.742;2024-03-23T04:21:22;9.60;46.70
80230;DHT22;69540;42.136;24.742;2024-03-23T04:23:48;9.50;46.70
80230;DHT22;69540;42.136;24.742;2024-03-23T04:26:15;9.50;46.40
80230;DHT22;69540;42.136;24.742;2024-03-23T04:28:41;9.40;46.50
80230;DHT22;69540;42.136;24.742;2024-03-23T04:31:07;9.40;46.40
80230;DHT22;69540;42.136;24.742;2024-03-23T04:33:32;9.30;46.30
80230;DHT22;69540;42.136;24.742;2024-03-23T04:35:58;9.30;46.30
80230;DHT22;69540;42.136;24.742;2024-03-23T04:38:24;9.30;46.50
80230;DHT22;69540;42.136;24.742;2024-03-23T04:40:59;9.30;46.60
80230;DHT22;69540;42.136;24.742;2024-03-23T04:43:26;9.20;46.50
80230;DHT22;69540;42.136;24.742;2024-03-23T04:45:52;9.20;46.50
80230;DHT22;69540;42.136;24.742;2024-03-23T04:48:22;9.20;46.50
80230;DHT22;69540;42.136;24.742;2024-03-23T04:50:55;9.20;46.60
80230;DHT22;69540;42.136;24.742;2024-03-23T04:53:23;9.20;46.80
80230;DHT22;69540;42.136;24.742;2024-03-23T04:55:54;9.20;46.80
80230;DHT22;69540;42.136;24.742;2024-03-23T04:58:20;9.20;46.90
80230;DHT22;69540;42.136;24.742;2024-03-23T05:00:45;9.10;46.80
80230;DHT22;69540;42.136;24.742;2024-03-23T05:03:11;9.20;46.90
80230;DHT22;69540;42.136;24.742;2024-03-23T05:05:36;9.20;46.80
80230;DHT22;69540;42.136;24.742;2024-03-23T05:08:02;9.20;46.80
80230;DHT22;69540;42.136;24.742;2024-03-23T05:10:28;9.20;47.00
80230;DHT22;69540;42.136;24.742;2024-03-23T05:12:54;9.20;47.20
80230;DHT22;69540;42.136;24.742;2024-03-23T05:15:20;9.20;47.30
80230;DHT22;69540;42.136;24.742;2024-03-23T05:17:45;9.20;47.20
80230;DHT22;69540;42.136;24.742;2024-03-23T05:20:11;9.20;47.10
80230;DHT22;69540;42.136;24.742;2024-03-23T05:22:38;9.30;47.20
80230;DHT22;69540;42.136;24.742;2024-03-23T05:25:04;9.20;46.90
80230;DHT22;69540;42.136;24.742;2024-03-23T05:27:32;9.20;47.30
80230;DHT22;69540;42.136;24.742;2024-03-23T05:29:58;9.20;47.30
80230;DHT22;69540;42.136;24.742;2024-03-23T05:32:24;9.30;47.10
80230;DHT22;69540;42.136;24.742;2024-03-23T05:34:50;9.30;46.60
80230;DHT22;69540;42.136;24.742;2024-03-23T05:37:21;9.40;46.60
80230;DHT22;69540;42.136;24.742;2024-03-23T05:39:47;9.40;46.60
80230;DHT22;69540;42.136;24.742;2024-03-23T05:42:16;9.40;46.30
80230;DHT22;69540;42.136;24.742;2024-03-23T05:44:46;9.50;47.10
80230;DHT22;69540;42.136;24.742;2024-03-23T05:47:12;9.50;46.00
80230;DHT22;69540;42.136;24.742;2024-03-23T05:49:42;9.50;45.90
80230;DHT22;69540;42.136;24.742;2024-03-23T05:52:11;9.50;45.60
80230;DHT22;69540;42.136;24.742;2024-03-23T05:54:37;9.60;45.40
80230;DHT22;69540;42.136;24.742;2024-03-23T05:57:03;9.60;45.40
80230;DHT22;69540;42.136;24.742;2024-03-23T05:59:29;9.60;45.30
80230;DHT22;69540;42.136;24.742;2024-03-23T06:01:55;9.70;45.30
80230;DHT22;69540;42.136;24.742;2024-03-23T06:04:20;9.80;45.30
80230;DHT22;69540;42.136;24.742;2024-03-23T06:06:48;9.90;45.30
80230;DHT22;69540;42.136;24.742;2024-03-23T06:09:14;10.00;45.10
80230;DHT22;69540;42.136;24.742;2024-03-23T06:11:39;10.20;44.70
80230;DHT22;69540;42.136;24.742;2024-03-23T06:14:05;10.40;44.20
80230;DHT22;69540;42.136;24.742;2024-03-23T06:16:31;10.70;43.80
80230;DHT22;69540;42.136;24.742;2024-03-23T06:18:57;11.00;42.80
80230;DHT22;69540;42.136;24.742;2024-03-23T06:21:24;11.80;41.10
80230;DHT22;69540;42.136;24.742;2024-03-23T06:23:52;13.20;38.10
80230;DHT22;69540;42.136;24.742;2024-03-23T06:26:21;14.70;34.70
80230;DHT22;69540;42.136;24.742;2024-03-23T06:28:47;16.00;31.90
80230;DHT22;69540;42.136;24.742;2024-03-23T06:31:13;17.20;29.80
80230;DHT22;69540;42.136;24.742;2024-03-23T06:33:39;18.30;28.30
80230;DHT22;69540;42.136;24.742;2024-03-23T06:36:05;19.30;26.90
80230;DHT22;69540;42.136;24.742;2024-03-23T06:38:32;20.10;25.80
80230;DHT22;69540;42.136;24.742;2024-03-23T06:40:57;21.00;24.90
80230;DHT22;69540;42.136;24.742;2024-03-23T06:43:23;21.80;23.60
80230;DHT22;69540;42.136;24.742;2024-03-23T06:45:56;22.70;22.70
80230;DHT22;69540;42.136;24.742;2024-03-23T06:48:22;23.60;21.50
80230;DHT22;69540;42.136;24.742;2024-03-23T06:50:48;24.50;20.50
80230;DHT22;69540;42.136;24.742;2024-03-23T06:53:14;25.10;19.60
80230;DHT22;69540;42.136;24.742;2024-03-23T06:55:41;25.60;19.00
80230;DHT22;69540;42.136;24.742;2024-03-23T06:58:07;26.20;18.80
80230;DHT22;69540;42.136;24.742;2024-03-23T07:00:33;27.10;18.30
80230;DHT22;69540;42.136;24.742;2024-03-23T07:02:59;28.30;17.30
80230;DHT22;69540;42.136;24.742;2024-03-23T07:05:25;29.50;16.20
80230;DHT22;69540;42.136;24.742;2024-03-23T07:07:51;30.70;15.50
80230;DHT22;69540;42.136;24.742;2024-03-23T07:10:17;31.80;14.60
80230;DHT22;69540;42.136;24.742;2024-03-23T07:12:43;32.50;13.50
80230;DHT22;69540;42.136;24.742;2024-03-23T07:15:09;33.10;13.40
80230;DHT22;69540;42.136;24.742;2024-03-23T07:17:35;33.90;13.10
80230;DHT22;69540;42.136;24.742;2024-03-23T07:20:01;34.50;12.50
80230;DHT22;69540;42.136;24.742;2024-03-23T07:22:30;35.10;12.10
80230;DHT22;69540;42.136;24.742;2024-03-23T07:24:56;35.50;11.80
80230;DHT22;69540;42.136;24.742;2024-03-23T07:27:21;35.80;11.60
80230;DHT22;69540;42.136;24.742;2024-03-23T07:29:49;36.20;11.30
80230;DHT22;69540;42.136;24.742;2024-03-23T07:32:14;36.50;10.90
80230;DHT22;69540;42.136;24.742;2024-03-23T07:34:40;36.70;10.90
80230;DHT22;69540;42.136;24.742;2024-03-23T07:37:08;37.10;10.80
80230;DHT22;69540;42.136;24.742;2024-03-23T07:39:34;37.50;10.50
80230;DHT22;69540;42.136;24.742;2024-03-23T07:42:00;37.90;10.20
80230;DHT22;69540;42.136;24.742;2024-03-23T07:44:25;38.10;10.00
80230;DHT22;69540;42.136;24.742;2024-03-23T07:46:51;38.30;9.80
80230;DHT22;69540;42.136;24.742;2024-03-23T07:49:17;38.40;9.60
80230;DHT22;69540;42.136;24.742;2024-03-23T07:51:43;38.70;9.50
80230;DHT22;69540;42.136;24.742;2024-03-23T07:54:10;39.00;9.30
80230;DHT22;69540;42.136;24.742;2024-03-23T07:56:36;39.30;9.10
80230;DHT22;69540;42.136;24.742;2024-03-23T07:59:01;39.60;9.10
80230;DHT22;69540;42.136;24.742;2024-03-23T08:01:29;39.70;8.90
80230;DHT22;69540;42.136;24.742;2024-03-23T08:03:55;39.50;8.90
80230;DHT22;69540;42.136;24.742;2024-03-23T08:06:21;39.10;9.20
80230;DHT22;69540;42.136;24.742;2024-03-23T08:08:49;38.70;9.50
80230;DHT22;69540;42.136;24.742;2024-03-23T08:11:16;38.10;9.50
80230;DHT22;69540;42.136;24.742;2024-03-23T08:13:42;37.60;10.10
80230;DHT22;69540;42.136;24.742;2024-03-23T08:16:10;37.00;10.10
80230;DHT22;69540;42.136;24.742;2024-03-23T08:18:36;36.30;10.60
80230;DHT22;69540;42.136;24.742;2024-03-23T08:21:04;35.60;11.20
80230;DHT22;69540;42.136;24.742;2024-03-23T08:23:31;34.70;11.40
80230;DHT22;69540;42.136;24.742;2024-03-23T08:26:00;34.00;11.90
80230;DHT22;69540;42.136;24.742;2024-03-23T08:28:26;33.20;12.10
80230;DHT22;69540;42.136;24.742;2024-03-23T08:30:53;32.60;12.40
80230;DHT22;69540;42.136;24.742;2024-03-23T08:33:19;32.00;12.40
80230;DHT22;69540;42.136;24.742;2024-03-23T08:36:04;31.50;12.90
80230;DHT22;69540;42.136;24.742;2024-03-23T08:38:30;30.90;13.20
80230;DHT22;69540;42.136;24.742;2024-03-23T08:41:04;30.40;13.50
80230;DHT22;69540;42.136;24.742;2024-03-23T08:43:31;30.10;13.90
80230;DHT22;69540;42.136;24.742;2024-03-23T08:46:07;29.80;14.20
80230;DHT22;69540;42.136;24.742;2024-03-23T08:48:37;29.60;14.50
80230;DHT22;69540;42.136;24.742;2024-03-23T08:51:04;29.20;14.70
80230;DHT22;69540;42.136;24.742;2024-03-23T08:53:30;29.00;14.80
80230;DHT22;69540;42.136;24.742;2024-03-23T08:55:57;28.80;14.70
80230;DHT22;69540;42.136;24.742;2024-03-23T08:58:24;28.40;14.30
80230;DHT22;69540;42.136;24.742;2024-03-23T09:00:54;28.00;14.70
80230;DHT22;69540;42.136;24.742;2024-03-23T09:03:25;27.80;15.30
80230;DHT22;69540;42.136;24.742;2024-03-23T09:05:52;27.50;15.10
80230;DHT22;69540;42.136;24.742;2024-03-23T09:08:18;27.30;15.50
80230;DHT22;69540;42.136;24.742;2024-03-23T09:10:44;27.10;15.40
80230;DHT22;69540;42.136;24.742;2024-03-23T09:13:10;26.90;15.40
80230;DHT22;69540;42.136;24.742;2024-03-23T09:15:44;26.70;15.90
80230;DHT22;69540;42.136;24.742;2024-03-23T09:18:10;26.40;16.20
80230;DHT22;69540;42.136;24.742;2024-03-23T09:20:36;26.20;16.60
80230;DHT22;69540;42.136;24.742;2024-03-23T09:23:02;26.20;16.20
80230;DHT22;69540;42.136;24.742;2024-03-23T09:25:27;26.10;16.60
80230;DHT22;69540;42.136;24.742;2024-03-23T09:27:53;25.90;16.50
80230;DHT22;69540;42.136;24.742;2024-03-23T09:30:19;25.60;16.90
80230;DHT22;69540;42.136;24.742;2024-03-23T09:32:45;25.40;17.20
80230;DHT22;69540;42.136;24.742;2024-03-23T09:35:11;25.40;17.00
80230;DHT22;69540;42.136;24.742;2024-03-23T09:37:38;25.10;16.90
80230;DHT22;69540;42.136;24.742;2024-03-23T09:40:10;25.00;17.40
80230;DHT22;69540;42.136;24.742;2024-03-23T09:42:40;24.70;17.90
80230;DHT22;69540;42.136;24.742;2024-03-23T09:45:17;24.60;18.00
80230;DHT22;69540;42.136;24.742;2024-03-23T09:47:45;24.40;18.30
80230;DHT22;69540;42.136;24.742;2024-03-23T09:50:12;24.30;17.90
80230;DHT22;69540;42.136;24.742;2024-03-23T09:52:39;24.20;18.10
80230;DHT22;69540;42.136;24.742;2024-03-23T09:55:04;24.00;18.50
80230;DHT22;69540;42.136;24.742;2024-03-23T09:57:30;23.80;18.90
80230;DHT22;69540;42.136;24.742;2024-03-23T09:59:56;23.80;18.70
80230;DHT22;69540;42.136;24.742;2024-03-23T10:02:24;23.70;19.10
80230;DHT22;69540;42.136;24.742;2024-03-23T10:04:49;23.70;19.30
80230;DHT22;69540;42.136;24.742;2024-03-23T10:07:18;23.50;19.40
80230;DHT22;69540;42.136;24.742;2024-03-23T10:09:45;23.40;19.80
80230;DHT22;69540;42.136;24.742;2024-03-23T10:12:12;23.10;19.90
80230;DHT22;69540;42.136;24.742;2024-03-23T10:14:39;23.00;20.00
80230;DHT22;69540;42.136;24.742;2024-03-23T10:17:19;23.00;20.00
80230;DHT22;69540;42.136;24.742;2024-03-23T10:19:49;22.90;19.90
80230;DHT22;69540;42.136;24.742;2024-03-23T10:22:22;22.70;20.10
80230;DHT22;69540;42.136;24.742;2024-03-23T10:24:48;22.50;20.40
80230;DHT22;69540;42.136;24.742;2024-03-23T10:27:23;22.40;20.70
80230;DHT22;69540;42.136;24.742;2024-03-23T10:29:49;22.30;20.80
80230;DHT22;69540;42.136;24.742;2024-03-23T10:32:17;22.20;20.90
80230;DHT22;69540;42.136;24.742;2024-03-23T10:34:43;22.10;21.10
80230;DHT22;69540;42.136;24.742;2024-03-23T10:37:09;22.10;21.30
80230;DHT22;69540;42.136;24.742;2024-03-23T10:39:41;22.10;21.40
80230;DHT22;69540;42.136;24.742;2024-03-23T10:42:08;22.10;21.30
80230;DHT22;69540;42.136;24.742;2024-03-23T10:44:36;21.90;21.50
80230;DHT22;69540;42.136;24.742;2024-03-23T10:47:02;22.00;21.60
80230;DHT22;69540;42.136;24.742;2024-03-23T10:49:35;21.90;21.50
80230;DHT22;69540;42.136;24.742;2024-03-23T10:52:03;22.00;21.40
80230;DHT22;69540;42.136;24.742;2024-03-23T10:54:33;21.90;21.40
80230;DHT22;69540;42.136;24.742;2024-03-23T10:57:05;21.80;21.90
80230;DHT22;69540;42.136;24.742;2024-03-23T10:59:33;21.80;21.70
80230;DHT22;69540;42.136;24.742;2024-03-23T11:02:01;21.70;21.70
80230;DHT22;69540;42.136;24.742;2024-03-23T11:04:38;21.70;21.70
80230;DHT22;69540;42.136;24.742;2024-03-23T11:07:30;21.70;21.50
80230;DHT22;69540;42.136;24.742;2024-03-23T11:09:59;21.70;21.70
80230;DHT22;69540;42.136;24.742;2024-03-23T11:12:31;21.70;21.60
80230;DHT22;69540;42.136;24.742;2024-03-23T11:15:06;21.60;21.60
80230;DHT22;69540;42.136;24.742;2024-03-23T11:17:36;21.60;21.70
80230;DHT22;69540;42.136;24.742;2024-03-23T11:20:03;21.60;21.50
80230;DHT22;69540;42.136;24.742;2024-03-23T11:22:44;21.50;21.60
80230;DHT22;69540;42.136;24.742;2024-03-23T11:25:22;21.40;22.50
80230;DHT22;69540;42.136;24.742;2024-03-23T11:27:50;21.50;21.90
80230;DHT22;69540;42.136;24.742;2024-03-23T11:30:21;21.50;21.90
80230;DHT22;69540;42.136;24.742;2024-03-23T11:32:55;21.50;22.10
80230;DHT22;69540;42.136;24.742;2024-03-23T11:35:31;21.50;22.10
80230;DHT22;69540;42.136;24.742;2024-03-23T11:38:14;21.50;22.00
80230;DHT22;69540;42.136;24.742;2024-03-23T11:40:45;21.60;21.80
80230;DHT22;69540;42.136;24.742;2024-03-23T11:43:16;21.60;21.70
80230;DHT22;69540;42.136;24.742;2024-03-23T11:45:49;21.70;21.50
80230;DHT22;69540;42.136;24.742;2024-03-23T11:48:21;21.70;21.40
80230;DHT22;69540;42.136;24.742;2024-03-23T11:50:50;21.60;21.50
80230;DHT22;69540;42.136;24.742;2024-03-23T11:53:23;21.50;21.80
80230;DHT22;69540;42.136;24.742;2024-03-23T11:55:51;21.50;21.40
80230;DHT22;69540;42.136;24.742;2024-03-23T11:58:19;21.50;21.40
80230;DHT22;69540;42.136;24.742;2024-03-23T12:00:51;21.60;21.40
80230;DHT22;69540;42.136;24.742;2024-03-23T12:03:18;21.60;21.50
80230;DHT22;69540;42.136;24.742;2024-03-23T12:05:50;21.70;21.20
80230;DHT22;69540;42.136;24.742;2024-03-23T12:08:29;21.70;21.10
80230;DHT22;69540;42.136;24.742;2024-03-23T12:11:12;21.60;20.90
80230;DHT22;69540;42.136;24.742;2024-03-23T12:13:39;21.60;21.00
80230;DHT22;69540;42.136;24.742;2024-03-23T12:16:17;21.60;21.30
80230;DHT22;69540;42.136;24.742;2024-03-23T12:18:44;21.60;21.20
80230;DHT22;69540;42.136;24.742;2024-03-23T12:21:11;21.60;20.80
80230;DHT22;69540;42.136;24.742;2024-03-23T12:23:39;21.50;20.80
80230;DHT22;69540;42.136;24.742;2024-03-23T12:26:05;21.50;20.80
80230;DHT22;69540;42.136;24.742;2024-03-23T12:28:32;21.40;20.30
80230;DHT22;69540;42.136;24.742;2024-03-23T12:30:57;21.50;20.60
80230;DHT22;69540;42.136;24.742;2024-03-23T12:33:23;21.50;21.10
80230;DHT22;69540;42.136;24.742;2024-03-23T12:35:50;21.50;21.00
80230;DHT22;69540;42.136;24.742;2024-03-23T12:38:16;21.60;21.20
80230;DHT22;69540;42.136;24.742;2024-03-23T12:40:46;21.70;21.10
80230;DHT22;69540;42.136;24.742;2024-03-23T12:43:13;21.70;21.00
80230;DHT22;69540;42.136;24.742;2024-03-23T12:45:38;21.70;20.80
80230;DHT22;69540;42.136;24.742;2024-03-23T12:48:04;21.70;20.90
80230;DHT22;69540;42.136;24.742;2024-03-23T12:50:30;21.70;21.00
80230;DHT22;69540;42.136;24.742;2024-03-23T12:52:56;21.60;21.00
80230;DHT22;69540;42.136;24.742;2024-03-23T12:55:21;21.80;20.60
80230;DHT22;69540;42.136;24.742;2024-03-23T12:57:47;21.80;20.50
80230;DHT22;69540;42.136;24.742;2024-03-23T13:00:13;21.80;20.30
80230;DHT22;69540;42.136;24.742;2024-03-23T13:02:41;21.80;20.00
80230;DHT22;69540;42.136;24.742;2024-03-23T13:05:07;21.80;20.00
80230;DHT22;69540;42.136;24.742;2024-03-23T13:07:36;21.80;20.00
80230;DHT22;69540;42.136;24.742;2024-03-23T13:10:03;21.80;19.90
80230;DHT22;69540;42.136;24.742;2024-03-23T13:12:29;21.70;19.60
80230;DHT22;69540;42.136;24.742;2024-03-23T13:14:56;21.70;19.50
80230;DHT22;69540;42.136;24.742;2024-03-23T13:17:22;21.80;19.70
80230;DHT22;69540;42.136;24.742;2024-03-23T13:19:47;21.80;19.60
80230;DHT22;69540;42.136;24.742;2024-03-23T13:22:13;21.80;19.40
80230;DHT22;69540;42.136;24.742;2024-03-23T13:24:39;21.70;19.50
80230;DHT22;69540;42.136;24.742;2024-03-23T13:27:05;21.70;19.40
80230;DHT22;69540;42.136;24.742;2024-03-23T13:29:33;21.70;19.10
80230;DHT22;69540;42.136;24.742;2024-03-23T13:32:06;21.70;18.30
80230;DHT22;69540;42.136;24.742;2024-03-23T13:34:32;21.70;18.30
80230;DHT22;69540;42.136;24.742;2024-03-23T13:36:59;21.70;18.50
80230;DHT22;69540;42.136;24.742;2024-03-23T13:39:25;21.70;18.40
80230;DHT22;69540;42.136;24.742;2024-03-23T13:41:53;21.70;18.10
80230;DHT22;69540;42.136;24.742;2024-03-23T13:44:20;21.70;18.80
80230;DHT22;69540;42.136;24.742;2024-03-23T13:46:45;21.60;18.90
80230;DHT22;69540;42.136;24.742;2024-03-23T13:49:31;21.40;19.40
80230;DHT22;69540;42.136;24.742;2024-03-23T13:52:00;21.50;19.90
80230;DHT22;69540;42.136;24.742;2024-03-23T13:54:28;21.30;19.90
80230;DHT22;69540;42.136;24.742;2024-03-23T13:56:55;21.30;19.80
80230;DHT22;69540;42.136;24.742;2024-03-23T13:59:21;21.30;19.60
80230;DHT22;69540;42.136;24.742;2024-03-23T14:01:49;21.40;19.40
80230;DHT22;69540;42.136;24.742;2024-03-23T14:04:15;21.20;19.50
80230;DHT22;69540;42.136;24.742;2024-03-23T14:06:42;21.20;19.40
80230;DHT22;69540;42.136;24.742;2024-03-23T14:09:10;21.30;19.30
80230;DHT22;69540;42.136;24.742;2024-03-23T14:11:36;21.20;19.00
80230;DHT22;69540;42.136;24.742;2024-03-23T14:14:03;21.20;19.40
80230;DHT22;69540;42.136;24.742;2024-03-23T14:16:32;21.20;19.40
80230;DHT22;69540;42.136;24.742;2024-03-23T14:18:58;21.20;19.20
80230;DHT22;69540;42.136;24.742;2024-03-23T14:21:24;21.30;18.80
80230;DHT22;69540;42.136;24.742;2024-03-23T14:23:50;21.30;19.10
80230;DHT22;69540;42.136;24.742;2024-03-23T14:26:16;21.30;19.30
80230;DHT22;69540;42.136;24.742;2024-03-23T14:28:42;21.20;19.50
80230;DHT22;69540;42.136;24.742;2024-03-23T14:31:07;21.10;19.60
80230;DHT22;69540;42.136;24.742;2024-03-23T14:33:39;21.20;20.10
80230;DHT22;69540;42.136;24.742;2024-03-23T14:36:11;21.20;20.50
80230;DHT22;69540;42.136;24.742;2024-03-23T14:38:37;21.00;20.30
80230;DHT22;69540;42.136;24.742;2024-03-23T14:41:03;21.00;20.80
80230;DHT22;69540;42.136;24.742;2024-03-23T14:43:29;21.00;21.20
80230;DHT22;69540;42.136;24.742;2024-03-23T14:46:11;20.80;21.30
80230;DHT22;69540;42.136;24.742;2024-03-23T14:48:38;20.90;21.20
80230;DHT22;69540;42.136;24.742;2024-03-23T14:51:04;20.80;21.30
80230;DHT22;69540;42.136;24.742;2024-03-23T14:53:31;20.70;20.80
80230;DHT22;69540;42.136;24.742;2024-03-23T14:55:57;20.80;20.10
80230;DHT22;69540;42.136;24.742;2024-03-23T14:58:23;20.90;20.00
80230;DHT22;69540;42.136;24.742;2024-03-23T15:00:50;21.00;19.80
80230;DHT22;69540;42.136;24.742;2024-03-23T15:03:17;21.00;19.40
80230;DHT22;69540;42.136;24.742;2024-03-23T15:05:52;21.00;19.10
80230;DHT22;69540;42.136;24.742;2024-03-23T15:08:18;20.90;18.60
80230;DHT22;69540;42.136;24.742;2024-03-23T15:10:43;20.80;18.70
80230;DHT22;69540;42.136;24.742;2024-03-23T15:13:09;20.80;18.30
80230;DHT22;69540;42.136;24.742;2024-03-23T15:15:39;20.80;18.00
80230;DHT22;69540;42.136;24.742;2024-03-23T15:18:06;20.80;18.20
80230;DHT22;69540;42.136;24.742;2024-03-23T15:20:32;20.70;18.90
80230;DHT22;69540;42.136;24.742;2024-03-23T15:23:02;20.60;19.60
80230;DHT22;69540;42.136;24.742;2024-03-23T15:25:28;20.60;20.00
80230;DHT22;69540;42.136;24.742;2024-03-23T15:27:53;20.70;20.40
80230;DHT22;69540;42.136;24.742;2024-03-23T15:30:20;20.70;20.30
80230;DHT22;69540;42.136;24.742;2024-03-23T15:32:46;20.80;20.20
80230;DHT22;69540;42.136;24.742;2024-03-23T15:35:12;20.70;20.30
80230;DHT22;69540;42.136;24.742;2024-03-23T15:37:38;20.70;20.40
80230;DHT22;69540;42.136;24.742;2024-03-23T15:40:06;20.70;20.50
80230;DHT22;69540;42.136;24.742;2024-03-23T15:42:32;20.60;20.40
80230;DHT22;69540;42.136;24.742;2024-03-23T15:44:57;20.50;20.20
80230;DHT22;69540;42.136;24.742;2024-03-23T15:47:23;20.40;20.20
80230;DHT22;69540;42.136;24.742;2024-03-23T15:49:49;20.30;20.60
80230;DHT22;69540;42.136;24.742;2024-03-23T15:52:15;20.30;20.40
80230;DHT22;69540;42.136;24.742;2024-03-23T15:54:43;20.30;20.20
80230;DHT22;69540;42.136;24.742;2024-03-23T15:57:08;20.10;20.30
80230;DHT22;69540;42.136;24.742;2024-03-23T15:59:34;20.10;20.20
80230;DHT22;69540;42.136;24.742;2024-03-23T16:02:01;20.10;20.20
80230;DHT22;69540;42.136;24.742;2024-03-23T16:04:28;20.00;20.40
80230;DHT22;69540;42.136;24.742;2024-03-23T16:06:54;20.00;19.90
80230;DHT22;69540;42.136;24.742;2024-03-23T16:09:19;19.90;20.00
80230;DHT22;69540;42.136;24.742;2024-03-23T16:11:45;19.80;20.20